Time;durP1;ratioP1;P1;durP2;ratioP2;P2;SDS_P1;SDS_P2;PMS_P1;PMS_P2;Temp;Humidity;BMP_temperature;BMP_pressure;BME280_temperature;BME280_humidity;BME280_pressure;Samples;Min_cycle;Max_cycle;Signal;HPM_P1;HPM_P2
2021/12/07 00:00:29;;;;;;;12.37;2.50;;;;;;;12.61;46.68;99663.50;4436056;32;20060;-67
2021/12/07 00:02:55;;;;;;;10.55;2.90;;;;;;;12.61;46.76;99660.69;4436381;32;20060;-66
2021/12/07 00:05:21;;;;;;;13.35;2.10;;;;;;;12.51;46.84;99649.91;4432909;32;20041;-66
2021/12/07 00:07:47;;;;;;;7.78;2.20;;;;;;;12.54;46.73;99646.12;4433521;32;20090;-67
2021/12/07 00:10:14;;;;;;;13.27;2.00;;;;;;;12.67;46.39;99652.34;4435431;32;20072;-67
2021/12/07 00:12:43;;;;;;;36.72;3.30;;;;;;;12.61;46.91;99657.84;4432472;32;20081;-67
2021/12/07 00:15:10;;;;;;;10.73;2.28;;;;;;;12.65;46.61;99666.16;4434332;32;20704;-66
2021/12/07 00:17:36;;;;;;;17.95;2.45;;;;;;;12.58;46.50;99674.97;4433049;32;20073;-67
2021/12/07 00:20:12;;;;;;;13.52;2.50;;;;;;;12.53;46.59;99659.47;4436536;32;20199;-66
2021/12/07 00:22:39;;;;;;;11.68;2.60;;;;;;;13.11;45.50;99662.62;4433008;32;20095;-67
2021/12/07 00:25:06;;;;;;;10.98;2.08;;;;;;;13.02;44.86;99670.34;4433553;32;20065;-67
2021/12/07 00:27:32;;;;;;;10.52;2.20;;;;;;;13.00;45.29;99675.69;4434620;32;20135;-67
2021/12/07 00:29:57;;;;;;;18.48;3.30;;;;;;;13.14;44.80;99674.97;4430633;32;20034;-67
2021/12/07 00:37:38;;;;;;;15.20;2.40;;;;;;;13.29;44.93;99687.13;3990180;32;15022329;-66
2021/12/07 00:40:07;;;;;;;16.12;2.33;;;;;;;13.29;44.93;99687.13;4446604;32;20411;-66
2021/12/07 00:42:34;;;;;;;15.98;2.25;;;;;;;12.57;45.86;99665.72;4448925;32;20466;-66
2021/12/07 00:45:00;;;;;;;14.95;2.65;;;;;;;12.48;45.70;99654.47;4445392;32;20091;-66
2021/12/07 00:47:26;;;;;;;18.73;2.70;;;;;;;12.49;45.49;99649.63;4446032;32;20025;-66
2021/12/07 00:49:52;;;;;;;12.48;2.30;;;;;;;12.57;45.44;99648.78;4446305;32;21156;-66
2021/12/07 00:52:17;;;;;;;9.20;1.90;;;;;;;12.67;45.46;99647.47;4445776;32;20053;-66
2021/12/07 00:54:43;;;;;;;17.50;3.37;;;;;;;12.32;45.74;99651.25;4448173;32;20103;-66
2021/12/07 00:57:09;;;;;;;12.90;2.25;;;;;;;12.08;46.09;99649.16;4447486;32;20082;-66
2021/12/07 00:59:35;;;;;;;12.27;2.50;;;;;;;12.35;45.91;99644.66;4445796;32;20475;-66
2021/12/07 01:02:02;;;;;;;12.85;2.20;;;;;;;12.43;45.72;99643.87;4447177;32;20499;-66
2021/12/07 01:04:28;;;;;;;15.30;3.20;;;;;;;12.61;45.40;99629.63;4445126;32;20041;-66
2021/12/07 01:25:59;;;;;;;14.90;2.80;;;;;;;12.44;45.78;99639.78;4439051;32;20069;-66
2021/12/07 01:28:33;;;;;;;15.55;2.67;;;;;;;12.41;45.42;99642.75;4433910;32;20132;-66
2021/12/07 01:31:13;;;;;;;12.23;2.08;;;;;;;12.53;45.31;99658.69;4436258;32;20082;-66
2021/12/07 01:39:53;;;;;;;15.38;2.80;;;;;;;12.60;45.09;99635.75;4436577;32;20032;-65
2021/12/07 01:45:13;;;;;;;11.20;3.15;;;;;;;13.05;44.23;99632.69;4436743;32;20332;-65
2021/12/07 01:50:34;;;;;;;15.95;2.87;;;;;;;12.70;44.79;99635.22;4437326;32;20065;-65
2021/12/07 01:59:33;;;;;;;11.88;2.67;;;;;;;13.18;44.29;99628.34;4433519;32;20037;-65
2021/12/07 02:01:11;;;;;;;11.98;3.28;;;;;;;12.51;45.06;99611.19;4435775;32;20420;-65
2021/12/07 02:03:39;;;;;;;16.12;3.10;;;;;;;12.42;44.96;99625.34;4436449;32;20474;-65
2021/12/07 02:06:06;;;;;;;15.70;3.12;;;;;;;12.65;44.77;99613.31;4439923;32;20073;-65
2021/12/07 02:08:31;;;;;;;15.55;3.20;;;;;;;12.50;44.85;99612.47;4433663;32;20072;-65
2021/12/07 02:11:01;;;;;;;18.27;3.10;;;;;;;12.24;45.41;99599.28;4433322;32;20084;-65
2021/12/07 02:16:09;;;;;;;17.83;3.00;;;;;;;12.94;44.59;99598.50;3990873;32;15021952;-65
2021/12/07 02:18:35;;;;;;;15.45;3.10;;;;;;;12.94;44.59;99598.50;4447907;32;20067;-66
2021/12/07 02:21:24;;;;;;;23.02;2.92;;;;;;;12.50;44.99;99594.75;4450056;32;20050;-66
2021/12/07 02:23:51;;;;;;;20.83;3.47;;;;;;;12.52;44.79;99601.47;4447542;32;20101;-65
2021/12/07 02:26:17;;;;;;;22.13;3.62;;;;;;;12.27;45.35;99601.91;4452359;32;20059;-65
2021/12/07 02:28:46;;;;;;;14.85;3.22;;;;;;;12.46;45.13;99599.78;4433407;32;20067;-66
2021/12/07 02:31:13;;;;;;;23.10;3.22;;;;;;;12.47;45.33;99612.63;4446634;32;20336;-66
2021/12/07 02:33:39;;;;;;;9.27;2.95;;;;;;;12.19;45.79;99612.00;4448557;32;20051;-66
2021/12/07 02:36:06;;;;;;;14.25;2.65;;;;;;;12.25;45.72;99612.91;4435546;32;20084;-66
2021/12/07 02:38:32;;;;;;;18.30;3.00;;;;;;;12.15;45.87;99605.72;4447417;32;20069;-65
2021/12/07 02:40:58;;;;;;;12.15;2.70;;;;;;;12.16;45.72;99593.22;4449106;32;20068;-66
2021/12/07 02:43:25;;;;;;;12.37;3.90;;;;;;;12.06;45.62;99597.34;4449596;32;20061;-65
2021/12/07 02:45:51;;;;;;;17.25;3.60;;;;;;;12.16;45.59;99592.41;4445186;32;20077;-66
2021/12/07 02:48:21;;;;;;;13.35;3.65;;;;;;;11.99;45.94;99601.25;4445475;32;20075;-66
2021/12/07 02:50:48;;;;;;;16.33;3.10;;;;;;;12.19;45.78;99603.53;4447528;32;20041;-66
2021/12/07 02:53:14;;;;;;;22.33;3.70;;;;;;;12.09;45.93;99619.69;4444876;32;20125;-66
2021/12/07 02:55:40;;;;;;;19.52;3.58;;;;;;;11.98;46.11;99622.25;4445658;32;20461;-65
2021/12/07 02:58:06;;;;;;;12.82;2.67;;;;;;;11.80;46.00;99639.22;4446364;32;20097;-66
2021/12/07 03:00:41;;;;;;;12.15;2.80;;;;;;;12.08;45.31;99640.72;4444754;32;20406;-66
2021/12/07 03:03:10;;;;;;;12.75;2.40;;;;;;;12.00;45.71;99641.53;4443009;32;20135;-65
2021/12/07 03:27:55;;;;;;;16.25;2.50;;;;;;;12.13;45.41;99625.19;4431810;32;20038;-66
2021/12/07 03:30:22;;;;;;;17.08;2.25;;;;;;;12.03;45.63;99629.28;4432201;32;20057;-66
2021/12/07 03:32:48;;;;;;;14.07;2.50;;;;;;;12.00;45.62;99642.28;4433076;32;20038;-66
2021/12/07 03:35:15;;;;;;;20.12;2.87;;;;;;;11.83;45.07;99643.91;4430623;32;20615;-66
2021/12/07 03:37:40;;;;;;;16.87;2.30;;;;;;;12.18;45.01;99655.53;4432226;32;20085;-66
2021/12/07 03:40:07;;;;;;;22.15;2.67;;;;;;;12.41;44.40;99663.28;4431253;32;20073;-66
2021/12/07 03:42:34;;;;;;;14.70;2.35;;;;;;;12.55;44.41;99647.72;4431244;32;20728;-66
2021/12/07 03:45:00;;;;;;;20.10;2.45;;;;;;;12.23;44.14;99654.09;4429583;32;20131;-66
2021/12/07 03:47:26;;;;;;;14.52;2.35;;;;;;;12.12;43.90;99631.28;4429509;32;20042;-66
2021/12/07 03:49:51;;;;;;;19.67;2.33;;;;;;;12.46;43.14;99637.25;4434034;32;20083;-66
2021/12/07 03:52:17;;;;;;;16.48;2.35;;;;;;;12.83;43.15;99641.44;4433199;32;20088;-66
2021/12/07 03:54:43;;;;;;;23.62;2.67;;;;;;;12.88;43.11;99657.69;4428865;32;20021;-66
2021/12/07 03:57:08;;;;;;;22.17;2.45;;;;;;;12.97;43.08;99654.81;4432515;32;20149;-66
2021/12/07 03:59:34;;;;;;;15.13;1.92;;;;;;;12.89;42.78;99653.59;4430950;32;20103;-66
2021/12/07 04:02:01;;;;;;;13.88;2.62;;;;;;;12.44;43.53;99647.44;4429854;32;20470;-66
2021/12/07 04:04:28;;;;;;;9.80;1.92;;;;;;;12.53;43.51;99650.22;4430417;32;20355;-66
2021/12/07 04:06:54;;;;;;;14.25;2.40;;;;;;;12.38;43.52;99621.94;4434545;32;20462;-66
2021/12/07 04:09:19;;;;;;;17.42;1.30;;;;;;;12.45;43.29;99621.56;4428092;32;20095;-66
2021/12/07 04:11:45;;;;;;;8.88;1.70;;;;;;;12.55;43.05;99606.16;4433910;32;20092;-66
2021/12/07 04:14:11;;;;;;;8.98;1.73;;;;;;;12.68;43.13;99594.63;4431112;32;20029;-66
2021/12/07 04:16:37;;;;;;;13.52;1.30;;;;;;;12.81;42.96;99595.97;4434286;32;20725;-66
2021/12/07 04:19:04;;;;;;;19.73;2.20;;;;;;;12.43;43.32;99584.63;4433833;32;20497;-67
2021/12/07 04:21:30;;;;;;;10.20;1.48;;;;;;;12.56;43.12;99585.16;4427947;32;20379;-66
2021/12/07 04:23:56;;;;;;;6.53;1.37;;;;;;;12.45;43.43;99567.19;4421346;32;20517;-66
2021/12/07 04:26:24;;;;;;;6.80;1.87;;;;;;;12.01;44.18;99556.47;4419946;32;20544;-66
2021/12/07 04:28:50;;;;;;;7.80;1.20;;;;;;;12.18;44.04;99559.66;4419815;32;20065;-66
2021/12/07 04:31:17;;;;;;;13.55;1.98;;;;;;;12.02;44.43;99551.59;4422453;32;21022;-67
2021/12/07 04:33:44;;;;;;;9.13;1.95;;;;;;;11.69;44.92;99550.81;4420706;32;20080;-67
2021/12/07 04:36:11;;;;;;;14.95;1.70;;;;;;;11.95;44.57;99541.44;4421718;32;20073;-67
2021/12/07 04:38:38;;;;;;;12.85;2.05;;;;;;;11.86;44.66;99557.59;4422295;32;20470;-67
2021/12/07 04:41:05;;;;;;;11.65;1.67;;;;;;;12.07;44.64;99563.00;4421961;32;20063;-67
2021/12/07 04:43:32;;;;;;;10.60;1.33;;;;;;;12.38;44.13;99564.72;4422659;32;20166;-67
2021/12/07 04:46:08;;;;;;;14.20;1.92;;;;;;;12.46;44.08;99563.12;4421990;32;20097;-67
2021/12/07 04:58:00;;;;;;;11.00;1.58;;;;;;;12.78;43.02;99551.75;4431479;32;20029;-66
2021/12/07 04:59:43;;;;;;;;;;;;;;;12.77;43.06;99549.41;4432198;32;20069;-66
2021/12/07 05:02:09;;;;;;;15.57;2.00;;;;;;;12.79;42.38;99549.72;4432414;32;19945;-65
2021/12/07 05:04:36;;;;;;;16.50;2.00;;;;;;;12.41;43.42;99544.81;4430684;32;20100;-67
2021/12/07 05:07:11;;;;;;;11.70;3.30;;;;;;;12.29;43.93;99543.00;4432986;32;20069;-66
2021/12/07 05:18:07;;;;;;;12.93;2.05;;;;;;;12.91;42.97;99540.19;4436940;32;20064;-66
2021/12/07 05:39:54;;;;;;;15.32;1.70;;;;;;;11.94;44.67;99488.38;4437145;32;20100;-66
2021/12/07 05:42:22;;;;;;;8.55;1.40;;;;;;;12.16;44.08;99479.59;4434076;32;20112;-66
2021/12/07 05:44:49;;;;;;;10.63;1.48;;;;;;;12.18;44.16;99480.69;4437402;32;20491;-66
2021/12/07 05:47:14;;;;;;;9.25;2.33;;;;;;;12.13;44.24;99489.03;4436038;32;20429;-66
2021/12/07 05:49:40;;;;;;;17.42;2.20;;;;;;;11.92;44.37;99476.78;4435891;32;20091;-66
2021/12/07 05:52:06;;;;;;;9.93;1.73;;;;;;;11.93;43.79;99479.12;4432219;32;20068;-66
2021/12/07 05:54:32;;;;;;;8.10;1.37;;;;;;;12.13;44.05;99468.03;4438286;32;20069;-66
2021/12/07 05:56:58;;;;;;;15.90;2.15;;;;;;;11.95;44.17;99465.34;4431269;32;20086;-66
2021/12/07 05:59:24;;;;;;;18.83;1.92;;;;;;;12.28;43.63;99468.09;4436106;32;20100;-66
2021/12/07 06:01:49;;;;;;;10.27;2.20;;;;;;;12.08;44.18;99465.88;4436450;32;20074;-66
2021/12/07 06:04:15;;;;;;;9.82;2.20;;;;;;;12.07;43.61;99457.91;4436382;32;20037;-66
2021/12/07 06:06:41;;;;;;;9.68;1.85;;;;;;;11.88;44.55;99459.25;4432545;32;20089;-66
2021/12/07 06:09:08;;;;;;;11.52;1.50;;;;;;;12.14;44.06;99457.53;4436044;32;20413;-66
2021/12/07 06:11:34;;;;;;;9.98;2.47;;;;;;;12.32;43.68;99443.31;4435223;32;20147;-66
2021/12/07 06:14:00;;;;;;;14.23;2.42;;;;;;;12.31;43.58;99438.94;4437146;32;20521;-66
2021/12/07 06:16:30;;;;;;;13.32;1.77;;;;;;;12.06;43.81;99436.59;4436609;32;20083;-66
2021/12/07 06:18:56;;;;;;;10.70;1.75;;;;;;;12.17;43.23;99430.41;4436859;32;20041;-66
2021/12/07 06:21:22;;;;;;;16.92;1.77;;;;;;;12.23;43.33;99420.00;4437681;32;20404;-66
2021/12/07 06:23:48;;;;;;;9.63;2.08;;;;;;;12.32;43.38;99411.47;4434321;32;20473;-66
2021/12/07 06:26:14;;;;;;;14.90;3.00;;;;;;;12.53;43.08;99422.44;4426210;32;20104;-66
2021/12/07 06:28:40;;;;;;;11.12;1.98;;;;;;;12.42;43.09;99425.03;4426013;32;20453;-66
2021/12/07 06:31:06;;;;;;;23.25;3.08;;;;;;;12.65;43.24;99415.75;4425455;32;20063;-66
2021/12/07 06:33:32;;;;;;;9.88;1.70;;;;;;;12.75;43.22;99405.94;4428259;32;20084;-66
2021/12/07 06:36:01;;;;;;;16.70;2.00;;;;;;;12.86;42.94;99408.19;4424488;32;20033;-66
2021/12/07 06:38:30;;;;;;;16.60;2.00;;;;;;;12.98;42.93;99401.47;4423952;32;20061;-66
2021/12/07 06:40:56;;;;;;;12.02;1.83;;;;;;;13.00;42.73;99393.28;4422060;32;20523;-66
2021/12/07 06:43:23;;;;;;;12.52;2.20;;;;;;;12.46;42.69;99388.19;4425080;32;20069;-66
2021/12/07 06:45:49;;;;;;;9.05;1.95;;;;;;;12.48;42.68;99389.25;4424117;32;20492;-66
2021/12/07 06:48:15;;;;;;;22.42;2.33;;;;;;;12.41;42.97;99372.72;4426205;32;20063;-66
2021/12/07 06:50:41;;;;;;;12.60;3.75;;;;;;;12.36;42.75;99356.44;4425051;32;20136;-66
2021/12/07 06:53:08;;;;;;;11.40;2.20;;;;;;;12.53;42.68;99357.53;4427040;32;20042;-66
2021/12/07 06:55:34;;;;;;;16.00;2.70;;;;;;;12.60;42.65;99354.34;4424760;32;20512;-66
2021/12/07 06:58:00;;;;;;;18.62;2.50;;;;;;;12.11;43.42;99337.25;4421487;32;20411;-66
2021/12/07 07:00:26;;;;;;;17.50;2.90;;;;;;;12.12;43.38;99338.03;4418106;32;20100;-66
2021/12/07 07:02:52;;;;;;;22.65;3.37;;;;;;;12.26;43.11;99323.94;4425328;32;20026;-66
2021/12/07 07:05:18;;;;;;;13.20;2.92;;;;;;;12.04;43.86;99331.97;4422886;32;20069;-66
2021/12/07 07:07:44;;;;;;;19.95;3.90;;;;;;;12.10;43.48;99330.06;4422261;32;20029;-66
2021/12/07 07:10:14;;;;;;;18.55;3.67;;;;;;;11.76;44.08;99325.00;4425318;32;20081;-66
2021/12/07 07:12:41;;;;;;;13.20;3.45;;;;;;;12.04;43.91;99320.69;4423119;32;20106;-66
2021/12/07 07:15:08;;;;;;;12.65;3.30;;;;;;;11.90;44.25;99310.94;4426857;32;20461;-66
2021/12/07 07:17:34;;;;;;;15.20;4.07;;;;;;;11.80;44.58;99308.66;4421716;32;20049;-66
2021/12/07 07:20:02;;;;;;;21.40;3.90;;;;;;;11.69;44.54;99302.81;4424298;32;20086;-66
2021/12/07 07:22:27;;;;;;;15.65;3.85;;;;;;;11.72;44.63;99299.03;4421615;32;20072;-66
2021/12/07 07:24:53;;;;;;;13.15;3.95;;;;;;;11.64;44.83;99286.56;4424215;32;20078;-66
2021/12/07 07:27:19;;;;;;;18.67;4.68;;;;;;;11.83;44.49;99276.69;4423935;32;20100;-66
2021/12/07 07:29:45;;;;;;;17.33;5.22;;;;;;;11.66;45.07;99264.34;4423350;32;20437;-66
2021/12/07 07:32:11;;;;;;;19.98;4.85;;;;;;;11.61;44.79;99254.47;4422573;32;20444;-66
2021/12/07 07:34:37;;;;;;;23.10;4.93;;;;;;;11.81;44.60;99248.22;4418562;32;20438;-66
2021/12/07 07:37:03;;;;;;;15.48;4.78;;;;;;;11.55;45.18;99238.72;4421786;32;20073;-67
2021/12/07 07:39:28;;;;;;;21.50;5.00;;;;;;;11.43;45.24;99228.47;4418141;32;20030;-66
2021/12/07 07:41:54;;;;;;;14.60;4.57;;;;;;;11.45;45.60;99237.22;4417711;32;20065;-66
2021/12/07 07:44:20;;;;;;;19.67;5.32;;;;;;;11.38;44.82;99243.19;4422034;32;20146;-66
2021/12/07 07:46:46;;;;;;;16.35;5.07;;;;;;;11.43;45.31;99225.66;4418258;32;20097;-67
2021/12/07 07:49:12;;;;;;;18.00;4.65;;;;;;;11.64;45.18;99214.09;4411413;32;20089;-66
2021/12/07 07:51:39;;;;;;;20.33;4.62;;;;;;;11.85;44.95;99192.47;4409894;32;20081;-67
2021/12/07 07:54:06;;;;;;;18.83;4.10;;;;;;;12.00;44.33;99185.56;4414557;32;20126;-67
2021/12/07 07:56:33;;;;;;;10.60;4.00;;;;;;;11.73;44.96;99173.78;4407841;32;20303;-67
2021/12/07 07:58:59;;;;;;;22.73;4.70;;;;;;;11.77;45.09;99157.44;4408752;32;20134;-67
2021/12/07 08:01:30;;;;;;;19.42;5.80;;;;;;;11.76;45.25;99155.91;4408264;32;20424;-67
2021/12/07 08:03:57;;;;;;;16.58;4.50;;;;;;;11.43;45.32;99141.94;4414959;32;20045;-68
2021/12/07 08:06:23;;;;;;;24.63;5.32;;;;;;;11.43;45.08;99135.53;4410065;32;20049;-69
2021/12/07 08:08:49;;;;;;;14.05;4.30;;;;;;;11.53;45.00;99126.50;4409469;32;20321;-67
2021/12/07 08:11:15;;;;;;;16.00;4.60;;;;;;;11.23;45.94;99124.13;4407100;32;20112;-67
2021/12/07 08:13:41;;;;;;;14.02;4.25;;;;;;;11.15;46.31;99128.56;4409442;32;20105;-67
2021/12/07 08:16:15;;;;;;;15.25;4.60;;;;;;;11.07;46.90;99136.59;4404616;32;20454;-67
2021/12/07 08:18:43;;;;;;;13.90;4.70;;;;;;;11.58;45.95;99139.94;4411695;32;20108;-67
2021/12/07 08:21:09;;;;;;;22.87;4.82;;;;;;;10.93;47.55;99125.28;4412351;32;20160;-67
2021/12/07 08:23:36;;;;;;;15.57;3.85;;;;;;;11.18;46.40;99127.59;4408958;32;20463;-68
2021/12/07 08:26:03;;;;;;;13.07;3.87;;;;;;;11.31;46.46;99128.12;4399838;32;20510;-68
2021/12/07 08:28:29;;;;;;;16.73;5.05;;;;;;;11.59;45.86;99127.38;4400791;32;20050;-67
2021/12/07 08:30:54;;;;;;;18.00;4.68;;;;;;;10.83;47.15;99118.94;4402226;32;20097;-67
2021/12/07 08:33:20;;;;;;;14.93;4.30;;;;;;;11.28;46.66;99109.37;4401136;32;20580;-67
2021/12/07 08:35:47;;;;;;;14.87;3.72;;;;;;;11.06;47.05;99067.50;4403109;32;20177;-67
2021/12/07 08:38:14;;;;;;;18.25;4.30;;;;;;;11.03;47.11;99057.19;4401127;32;20123;-69
2021/12/07 08:40:41;;;;;;;23.80;4.25;;;;;;;10.89;47.76;99045.91;4403993;32;20106;-69
2021/12/07 08:43:11;;;;;;;19.17;3.55;;;;;;;11.16;46.98;99054.09;4411184;32;20046;-69
2021/12/07 08:45:40;;;;;;;17.00;3.90;;;;;;;11.04;46.90;99057.97;4405220;32;20081;-69
2021/12/07 08:48:08;;;;;;;15.38;4.05;;;;;;;11.12;47.35;99050.69;4405058;32;20453;-68
2021/12/07 08:50:35;;;;;;;14.48;3.67;;;;;;;11.12;46.99;99045.06;4406072;32;20077;-68
2021/12/07 08:53:07;;;;;;;22.23;3.97;;;;;;;11.39;46.32;99047.63;4408704;32;20395;-68
2021/12/07 09:01:06;;;;;;;16.08;4.07;;;;;;;11.67;45.67;99021.53;4404302;32;20126;-67
2021/12/07 09:03:33;;;;;;;15.00;4.35;;;;;;;11.85;45.33;99021.28;4402342;32;20796;-68
2021/12/07 09:05:58;;;;;;;18.48;3.67;;;;;;;11.93;45.17;99011.19;4400320;32;20105;-68
2021/12/07 09:08:24;;;;;;;15.77;3.75;;;;;;;11.90;44.94;99009.34;4407290;32;20049;-67
2021/12/07 09:10:50;;;;;;;23.42;4.28;;;;;;;11.89;44.55;99007.00;4408991;32;20098;-67
2021/12/07 09:13:16;;;;;;;17.17;3.92;;;;;;;12.00;44.85;98988.22;4402928;32;20077;-68
2021/12/07 09:15:42;;;;;;;13.10;3.50;;;;;;;12.23;44.19;98974.44;4403787;32;20094;-67
2021/12/07 09:18:08;;;;;;;15.48;3.30;;;;;;;12.39;44.03;98960.56;4403005;32;20136;-68
2021/12/07 09:20:35;;;;;;;20.33;3.72;;;;;;;12.58;43.45;98936.41;4404360;32;20050;-68
2021/12/07 09:23:01;;;;;;;25.15;4.18;;;;;;;12.93;42.87;98944.75;4404572;32;20102;-68
2021/12/07 09:25:27;;;;;;;19.60;4.55;;;;;;;12.56;42.87;98950.25;4401297;32;20584;-68
2021/12/07 09:27:54;;;;;;;18.80;3.78;;;;;;;12.87;42.74;98939.06;4407343;32;20037;-68
2021/12/07 09:30:22;;;;;;;23.58;4.07;;;;;;;12.89;42.63;98935.75;4402810;32;20123;-68
2021/12/07 09:32:50;;;;;;;16.33;3.83;;;;;;;13.00;42.53;98942.31;4399011;32;20457;-68
2021/12/07 09:35:15;;;;;;;19.05;3.53;;;;;;;13.23;42.22;98940.47;4401797;32;21226;-68
2021/12/07 09:37:41;;;;;;;16.15;4.78;;;;;;;12.80;42.53;98928.22;4403881;32;20162;-68
2021/12/07 09:40:12;;;;;;;14.50;3.55;;;;;;;12.88;42.47;98925.69;4405059;32;20073;-67
2021/12/07 09:42:39;;;;;;;17.75;4.10;;;;;;;13.06;42.30;98905.63;4407816;32;20129;-67
2021/12/07 09:45:09;;;;;;;15.00;2.70;;;;;;;13.31;42.14;98902.00;4391934;32;20097;-68
2021/12/07 09:47:35;;;;;;;20.30;3.12;;;;;;;13.40;41.86;98880.00;4392884;32;20469;-67
2021/12/07 09:50:03;;;;;;;22.92;3.50;;;;;;;13.36;41.92;98868.16;4402089;32;20170;-67
2021/12/07 09:52:29;;;;;;;20.35;3.83;;;;;;;13.60;41.39;98851.63;4402943;32;20033;-68
2021/12/07 09:54:55;;;;;;;15.35;2.47;;;;;;;13.45;41.50;98841.75;4403227;32;20444;-67
2021/12/07 09:57:22;;;;;;;12.32;2.47;;;;;;;13.42;41.36;98828.66;4405739;32;20112;-67
2021/12/07 09:59:49;;;;;;;11.90;2.50;;;;;;;13.45;41.26;98808.66;4404936;32;20450;-68
2021/12/07 10:02:15;;;;;;;12.50;2.80;;;;;;;13.43;41.03;98794.25;4407236;32;20692;-68
2021/12/07 10:04:41;;;;;;;17.08;2.58;;;;;;;13.47;41.36;98777.81;4410357;32;20507;-68
2021/12/07 10:07:08;;;;;;;10.10;2.83;;;;;;;13.31;41.39;98775.66;4407357;32;20117;-67
2021/12/07 10:09:35;;;;;;;17.00;3.45;;;;;;;13.36;41.29;98765.69;4404535;32;20092;-68
2021/12/07 10:12:03;;;;;;;18.42;2.83;;;;;;;13.74;40.86;98745.31;4403694;32;20116;-68
2021/12/07 10:14:44;;;;;;;9.85;2.08;;;;;;;13.91;40.37;98737.69;4408011;32;20120;-68
2021/12/07 10:17:10;;;;;;;16.90;3.97;;;;;;;14.23;39.89;98721.31;4406871;32;20073;-68
2021/12/07 10:19:42;;;;;;;10.98;2.25;;;;;;;13.96;39.97;98714.28;4395904;32;20045;-69
2021/12/07 10:22:12;;;;;;;10.52;1.85;;;;;;;13.78;40.16;98703.47;4403415;32;20181;-68
2021/12/07 10:24:46;;;;;;;11.75;1.45;;;;;;;13.49;40.65;98707.44;4403542;32;20037;-68
2021/12/07 10:27:13;;;;;;;14.07;1.95;;;;;;;13.32;40.65;98674.75;4404435;32;20290;-69
2021/12/07 10:29:40;;;;;;;12.40;1.90;;;;;;;12.79;41.45;98660.59;4410092;32;20189;-68
2021/12/07 10:32:07;;;;;;;10.93;2.40;;;;;;;13.22;41.17;98660.06;4405383;32;20086;-68
2021/12/07 10:34:40;;;;;;;10.82;2.00;;;;;;;13.34;40.81;98632.62;4406255;32;20080;-69
2021/12/07 10:39:48;;;;;;;11.73;2.03;;;;;;;13.51;40.25;98630.66;3960043;31;15857084;-68
2021/12/07 10:44:53;;;;;;;10.90;1.70;;;;;;;13.07;41.82;98603.00;3987455;31;15020562;-67
2021/12/07 10:47:22;;;;;;;12.07;1.62;;;;;;;13.07;41.82;98603.00;4445824;32;20084;-67
2021/12/07 10:52:33;;;;;;;14.25;2.25;;;;;;;13.61;40.89;98561.31;3961037;32;15022275;-69
2021/12/07 10:55:25;;;;;;;11.40;2.17;;;;;;;13.61;40.89;98561.31;4407986;32;21219;-69
2021/12/07 11:00:36;;;;;;;17.33;2.30;;;;;;;13.82;41.41;98520.22;3963294;32;15021923;-68
2021/12/07 11:05:46;;;;;;;14.60;2.12;;;;;;;13.50;43.09;98482.94;3968196;32;15028913;-69
2021/12/07 11:08:14;;;;;;;8.95;1.60;;;;;;;13.50;43.09;98482.94;4408014;32;20081;-69
2021/12/07 11:10:45;;;;;;;15.13;2.03;;;;;;;12.79;44.22;98460.97;4412023;32;20050;-69
2021/12/07 11:13:16;;;;;;;12.82;2.03;;;;;;;12.53;45.36;98445.47;4412898;32;20337;-69
2021/12/07 11:15:49;;;;;;;17.50;2.15;;;;;;;12.97;44.59;98423.03;4416036;32;20045;-69
2021/12/07 11:18:17;;;;;;;12.20;2.42;;;;;;;12.54;45.93;98422.41;4418672;32;20343;-69
2021/12/07 11:20:43;;;;;;;12.73;2.60;;;;;;;12.63;46.14;98410.13;4418299;32;20213;-69
2021/12/07 11:23:16;;;;;;;19.83;1.90;;;;;;;12.85;45.34;98410.16;4416958;32;20371;-69
2021/12/07 11:31:40;;;;;;;7.75;1.48;;;;;;;12.99;45.63;98381.75;4418571;32;20077;-69
2021/12/07 11:36:50;;;;;;;15.30;2.00;;;;;;;13.10;46.06;98353.53;3974662;32;15027198;-68
2021/12/07 11:39:27;;;;;;;12.63;2.42;;;;;;;13.10;46.06;98353.53;4426882;32;20130;-71
2021/12/07 11:42:00;;;;;;;12.75;2.22;;;;;;;12.83;46.48;98334.50;4427429;32;20092;-68
2021/12/07 11:44:27;;;;;;;9.93;2.03;;;;;;;12.22;48.12;98305.41;4417696;32;20431;-67
2021/12/07 11:46:54;;;;;;;18.52;2.30;;;;;;;12.47;48.29;98295.97;4430668;32;20203;-68
2021/12/07 11:49:25;;;;;;;15.07;2.25;;;;;;;12.80;48.18;98286.78;4428766;32;20661;-67
2021/12/07 11:51:55;;;;;;;18.75;2.33;;;;;;;12.51;48.86;98276.75;4430951;32;20072;-67
2021/12/07 11:54:24;;;;;;;26.08;3.42;;;;;;;12.29;49.33;98273.09;4431159;32;20056;-67
2021/12/07 11:56:51;;;;;;;20.05;3.22;;;;;;;12.22;50.07;98249.00;4415745;32;20029;-70
2021/12/07 11:59:18;;;;;;;15.48;2.17;;;;;;;11.95;51.01;98218.72;4420552;32;20096;-69
2021/12/07 12:01:46;;;;;;;20.25;2.05;;;;;;;11.66;51.78;98200.16;4425157;32;20095;-69
2021/12/07 12:04:14;;;;;;;20.95;3.50;;;;;;;12.31;50.80;98211.34;4430488;32;20102;-69
2021/12/07 12:06:42;;;;;;;21.40;3.17;;;;;;;12.04;51.29;98191.06;4426911;32;20057;-69
2021/12/07 12:09:09;;;;;;;11.93;2.25;;;;;;;12.04;51.17;98176.97;4425851;32;20073;-68
2021/12/07 12:11:51;;;;;;;21.55;3.62;;;;;;;12.37;50.92;98161.34;4424160;32;20532;-69
2021/12/07 12:20:11;;;;;;;18.35;3.05;;;;;;;12.45;51.30;98115.19;3971178;32;15027296;-68
2021/12/07 12:22:47;;;;;;;15.40;3.03;;;;;;;12.45;51.30;98115.19;4424862;32;20040;-67
2021/12/07 12:25:19;;;;;;;16.62;2.65;;;;;;;12.51;51.18;98099.03;4428026;32;20640;-67
2021/12/07 12:27:47;;;;;;;15.68;2.40;;;;;;;12.47;51.54;98101.38;4426935;32;20089;-67
2021/12/07 12:30:37;;;;;;;11.75;2.05;;;;;;;12.62;51.13;98076.47;4426944;32;20068;-67
2021/12/07 12:33:08;;;;;;;23.15;3.65;;;;;;;12.62;50.98;98078.50;4425720;32;20034;-67
2021/12/07 12:35:42;;;;;;;15.88;2.50;;;;;;;12.53;51.90;98070.31;4423097;32;20041;-67
2021/12/07 12:38:28;;;;;;;15.23;2.08;;;;;;;12.31;52.30;98065.50;4427583;32;20042;-67
2021/12/07 12:43:53;;;;;;;16.23;2.62;;;;;;;12.32;51.85;98036.00;3965998;32;15025474;-69
2021/12/07 12:46:24;;;;;;;8.48;1.70;;;;;;;12.31;52.02;98011.94;4398565;32;20092;-68
2021/12/07 12:48:56;;;;;;;17.42;2.12;;;;;;;12.14;52.79;97997.06;4408269;32;20147;-68
2021/12/07 12:51:24;;;;;;;15.80;2.78;;;;;;;11.90;53.43;97985.56;4395709;32;20249;-68
2021/12/07 12:53:53;;;;;;;19.05;2.75;;;;;;;12.37;52.59;97981.66;4395789;32;20127;-67
2021/12/07 12:56:24;;;;;;;13.40;2.22;;;;;;;12.33;52.67;97967.03;4414978;32;20067;-67
2021/12/07 12:58:55;;;;;;;19.00;2.17;;;;;;;12.04;53.05;97950.72;4411392;32;20473;-68
2021/12/07 13:09:27;;;;;;;13.75;2.22;;;;;;;12.84;51.66;97872.44;3976252;32;15022026;-68
2021/12/07 13:11:57;;;;;;;6.95;1.62;;;;;;;12.84;51.66;97872.44;4428556;32;20164;-68
2021/12/07 13:25:17;;;;;;;14.68;2.55;;;;;;;12.68;52.67;97806.37;3922638;32;15022058;-70
2021/12/07 13:28:12;;;;;;;17.77;4.20;;;;;;;12.68;52.67;97806.37;4373681;32;20255;-70
2021/12/07 13:35:55;;;;;;;17.23;2.90;;;;;;;12.94;52.38;97761.53;3962377;32;15022857;-68
2021/12/07 13:43:53;;;;;;;12.15;2.92;;;;;;;12.90;52.48;97687.69;3961607;32;15022352;-68
2021/12/07 13:46:24;;;;;;;19.80;2.47;;;;;;;12.90;52.48;97687.69;4410906;32;20096;-69
2021/12/07 13:49:01;;;;;;;10.45;3.25;;;;;;;12.70;53.03;97688.12;4401164;32;20088;-69
2021/12/07 13:51:28;;;;;;;10.48;2.55;;;;;;;12.85;52.63;97676.44;4411830;32;20109;-68
2021/12/07 13:53:53;;;;;;;16.73;2.92;;;;;;;12.52;53.66;97648.56;4407987;32;20085;-69
2021/12/07 13:56:21;;;;;;;12.50;2.58;;;;;;;12.24;54.09;97620.56;4411576;32;20218;-68
2021/12/07 13:58:52;;;;;;;13.52;2.45;;;;;;;12.73;53.59;97627.06;4405907;32;20065;-67
2021/12/07 14:01:18;;;;;;;11.75;2.50;;;;;;;12.76;53.85;97623.94;4404855;32;20077;-68
2021/12/07 14:03:45;;;;;;;13.75;2.97;;;;;;;12.39;54.65;97617.41;4405513;32;20060;-68
2021/12/07 14:06:11;;;;;;;14.55;3.22;;;;;;;12.69;54.48;97599.16;4406665;32;20132;-67
2021/12/07 14:08:37;;;;;;;14.13;2.90;;;;;;;12.18;55.76;97597.31;4411826;32;20078;-69
2021/12/07 14:11:03;;;;;;;10.43;2.60;;;;;;;12.72;54.67;97588.84;4408899;32;20040;-68
2021/12/07 14:13:29;;;;;;;10.95;3.25;;;;;;;12.89;54.43;97558.41;4410233;32;20781;-68
2021/12/07 14:15:54;;;;;;;9.68;2.60;;;;;;;12.54;55.27;97556.47;4407716;32;20077;-67